createdAt,value
2022-09-07T03:44:00.624Z,0.1
2022-09-07T03:45:00.855Z,0.1
2022-09-07T03:46:00.429Z,0.2
2022-09-07T03:47:00.362Z,0.3
2022-09-07T03:49:00.744Z,0.4
2022-09-07T03:50:00.355Z,0.5
2022-09-07T03:51:00.414Z,0.6
2022-09-07T03:52:00.366Z,0.7
2022-09-07T03:53:00.355Z,0.9
2022-09-07T03:54:00.578Z,1.1
2022-09-07T03:55:00.360Z,1.3
2022-09-07T03:56:00.390Z,1.6
2022-09-07T03:57:00.383Z,1.9
2022-09-07T03:58:00.368Z,2.3
2022-09-07T03:59:00.561Z,2.7
2022-09-07T04:00:00.990Z,3.1
2022-09-07T04:01:00.447Z,3.7
2022-09-07T04:02:00.408Z,4.3
2022-09-07T04:03:00.347Z,4.9
2022-09-07T04:04:15.365Z,5.9
2022-09-07T04:05:00.625Z,6.9
2022-09-07T04:06:00.382Z,8.3
2022-09-07T04:07:00.365Z,9.8
2022-09-07T04:08:00.383Z,11.3
2022-09-07T04:09:00.358Z,13.5
2022-09-07T04:10:00.648Z,15.7
2022-09-07T04:11:00.598Z,18.9
2022-09-07T04:12:00.366Z,22.1
2022-09-07T04:13:00.353Z,25.3
2022-09-07T04:14:00.352Z,29.9
2022-09-07T04:16:00.381Z,41.5
2022-09-07T04:17:00.401Z,48.5
2022-09-07T04:18:00.354Z,55.4
2022-09-07T04:19:00.365Z,65.5
2022-09-07T04:20:00.635Z,75.7
2022-09-07T04:21:00.377Z,91.5
2022-09-07T04:22:00.352Z,107.3
2022-09-07T04:23:00.354Z,123.1
2022-09-07T04:24:00.355Z,149.7
2022-09-07T04:25:00.588Z,176.4
2022-09-07T04:26:00.431Z,216.1
2022-09-07T04:27:00.365Z,255.7
2022-09-07T04:28:00.357Z,295.4
2022-09-07T04:29:00.365Z,344.3
2022-09-07T04:30:01.067Z,393.1
2022-09-07T04:31:00.473Z,439.5
2022-09-07T04:32:00.359Z,483.7
2022-09-07T04:33:00.351Z,527.9
2022-09-07T04:34:00.369Z,578.8
2022-09-07T04:35:00.621Z,629.7
2022-09-07T04:36:00.404Z,674.3
2022-09-07T04:37:00.357Z,730.1
2022-09-07T04:38:00.361Z,785.8
2022-09-07T04:39:00.368Z,840.8
2022-09-07T04:40:00.587Z,895.8
2022-09-07T04:41:00.402Z,936.7
2022-09-07T04:42:00.369Z,991.1
2022-09-07T04:43:00.559Z,1045.6
2022-09-07T04:44:00.387Z,1107.4
2022-09-07T04:45:01.078Z,1169.2
2022-09-07T04:46:00.438Z,1231.0
2022-09-07T04:47:00.424Z,1314.9
2022-09-07T04:48:00.374Z,1398.9
2022-09-07T04:49:00.365Z,1493.7
2022-09-07T04:50:01.018Z,1588.5
2022-09-07T04:51:04.042Z,1683.3
2022-09-07T04:52:00.374Z,1796.2
2022-09-07T04:53:00.367Z,1909.1
2022-09-07T04:54:00.359Z,2047.3
2022-09-07T04:55:01.009Z,2185.4
2022-09-07T04:56:00.387Z,2323.5
2022-09-07T04:57:00.357Z,2486.2
2022-09-07T04:58:00.365Z,2648.9
2022-09-07T04:59:00.366Z,2834.7
2022-09-07T05:01:00.500Z,3206.3
2022-09-07T05:02:00.425Z,3424.6
2022-09-07T05:03:00.359Z,3642.9
2022-09-07T05:04:01.392Z,3906.5
2022-09-07T05:05:02.691Z,4170.0
2022-09-07T05:06:00.409Z,4433.5
2022-09-07T05:07:00.398Z,4743.4
2022-09-07T05:08:00.367Z,5053.3
2022-09-07T05:09:00.374Z,5400.7
2022-09-07T05:10:00.696Z,5748.1
2022-09-07T05:11:00.407Z,6095.5
2022-09-07T05:12:00.364Z,6469.7
2022-09-07T05:13:00.368Z,6843.9
2022-09-07T05:14:00.371Z,7241.4
2022-09-07T05:15:01.000Z,7638.9
2022-09-07T05:16:00.411Z,8036.5
2022-09-07T05:17:00.439Z,8459.0
2022-09-07T05:18:00.435Z,8881.5
2022-09-07T05:19:00.373Z,9325.3
2022-09-07T05:20:00.652Z,9769.0
2022-09-07T05:21:00.426Z,10212.7
2022-09-07T05:22:00.370Z,10667.3
2022-09-07T05:23:00.369Z,11121.8
2022-09-07T05:24:00.372Z,11588.7
2022-09-07T05:25:07.644Z,12055.7
2022-09-07T05:26:00.556Z,12522.6
2022-09-07T05:27:00.369Z,13008.3
2022-09-07T05:28:00.369Z,13494.1
2022-09-07T05:55:29.202Z,23571.0
2022-09-07T05:57:00.472Z,23895.7
2022-09-07T05:58:00.460Z,24058.0
2022-09-07T05:59:00.456Z,24355.4
2022-09-07T06:01:00.461Z,24695.3
2022-09-07T06:02:00.532Z,24913.1
2022-09-07T06:03:00.605Z,25082.6
2022-09-07T06:04:00.464Z,25299.2
2022-09-07T06:05:00.680Z,25476.5
2022-09-07T06:06:00.538Z,25624.2
2022-09-07T06:25:01.769Z,35400.0
2022-09-07T06:27:00.877Z,36255.0
2022-09-07T06:28:01.010Z,36682.5
2022-09-07T06:29:00.880Z,37504.0
2022-09-07T06:30:01.694Z,38051.7
2022-09-07T06:31:00.903Z,38442.9
2022-09-07T06:55:02.255Z,56390.0
2022-09-07T06:57:00.376Z,56479.7
2022-09-07T06:58:00.398Z,56524.5
2022-09-07T06:59:00.337Z,56593.6
2022-09-07T07:01:00.394Z,56672.6
2022-09-07T07:02:00.373Z,56861.5
2022-09-07T07:03:00.490Z,57008.4
2022-09-07T07:04:00.346Z,57279.2
2022-09-07T07:05:00.564Z,57500.7
2022-09-07T07:06:00.405Z,57685.3
2022-09-07T07:07:00.385Z,57853.6
2022-09-07T07:08:00.407Z,57997.9
2022-09-07T07:09:00.354Z,58001.2
2022-09-07T07:10:00.592Z,58111.7
2022-09-07T07:11:00.432Z,58222.3
2022-09-07T07:12:00.391Z,57995.6
2022-09-07T07:13:00.345Z,57768.9
2022-09-07T07:14:00.347Z,57215.6
2022-09-07T07:15:01.280Z,56662.3
2022-09-07T07:16:00.376Z,56108.9
2022-09-07T07:17:00.391Z,55850.9
2022-09-07T07:18:09.411Z,55592.8
2022-09-07T07:19:00.342Z,55980.7
2022-09-07T07:20:00.999Z,56368.7
2022-09-07T07:21:00.343Z,56756.6
2022-09-07T08:05:01.373Z,65535.0
2022-09-07T08:07:00.288Z,65171.0
2022-09-07T08:08:00.291Z,64989.0
2022-09-07T08:09:00.372Z,64774.2
2022-09-07T08:10:00.807Z,64631.0
2022-09-07T08:11:00.291Z,64528.7
2022-09-07T08:12:00.302Z,64403.1
2022-09-07T08:13:00.550Z,64305.4
2022-09-07T08:14:00.401Z,64148.8
2022-09-07T08:15:01.150Z,64020.6
2022-09-07T08:16:00.324Z,63913.8
2022-09-07T08:17:00.286Z,63751.5
2022-09-07T08:18:00.293Z,63612.3
2022-09-07T08:19:00.285Z,63498.5
2022-09-07T08:20:00.500Z,63256.6
2022-09-07T08:21:00.420Z,63014.7
2022-09-07T08:22:00.323Z,62888.6
2022-09-07T08:23:00.303Z,62762.5
2022-09-07T08:24:00.313Z,62632.3
2022-09-07T08:26:05.295Z,62371.7
2022-09-07T08:27:00.292Z,62135.8
2022-09-07T08:28:00.295Z,61899.9
2022-09-07T08:29:00.311Z,61817.1
2022-09-07T08:31:00.355Z,61651.5
2022-09-07T08:32:00.353Z,61900.3
2022-09-07T08:33:00.329Z,62149.1
2022-09-07T08:34:00.608Z,62391.0
2022-09-07T08:35:01.338Z,62632.9
2022-09-07T08:36:00.292Z,62874.9
2022-09-07T08:37:00.338Z,62347.3
2022-09-07T08:38:00.312Z,61819.7
2022-09-07T08:39:00.343Z,60911.5
2022-09-07T08:40:00.592Z,60003.3
2022-09-07T08:41:00.301Z,59095.1
2022-09-07T08:42:00.295Z,58684.1
2022-09-07T08:43:00.314Z,58273.2
2022-09-07T08:44:00.409Z,58542.4
2022-09-07T08:45:01.174Z,58811.6
2022-09-07T08:46:00.303Z,59080.8
2022-09-07T08:52:00.578Z,59726.7
2022-09-07T08:53:00.334Z,60372.7
2022-09-07T08:54:00.304Z,61200.6
2022-09-07T08:55:00.388Z,62028.5
2022-09-07T08:56:00.301Z,62856.5
2022-09-07T09:15:02.141Z,53298.0
2022-09-07T09:17:01.102Z,54155.0
2022-09-07T09:18:01.078Z,54583.5
2022-09-07T09:19:01.086Z,54113.0
2022-09-07T09:20:01.332Z,53799.3
2022-09-07T09:21:01.137Z,53575.3
2022-09-07T09:22:01.103Z,52590.6
2022-09-07T09:23:01.088Z,51824.8
2022-09-07T09:24:01.081Z,51389.5
2022-09-07T09:25:01.338Z,51033.4
2022-09-07T09:26:01.089Z,50736.6
2022-09-07T09:27:01.092Z,50835.9
2022-09-07T09:28:01.082Z,50921.1
2022-09-07T09:29:01.096Z,51203.2
2022-09-07T09:30:01.892Z,51326.9
2022-09-07T09:31:01.170Z,51450.5
2022-09-07T09:32:01.085Z,51719.5
2022-09-07T09:33:01.084Z,51988.5
2022-09-07T09:34:01.093Z,52875.5
2022-09-07T09:35:01.495Z,53762.4
2022-09-07T09:36:01.083Z,54649.3
2022-09-07T09:37:01.084Z,55971.8
2022-09-07T09:38:01.087Z,57294.3
2022-09-07T09:39:01.092Z,58498.5
2022-09-07T09:40:02.700Z,59702.7
2022-09-07T09:41:01.091Z,60906.9
2022-09-07T09:42:01.152Z,61807.3
2022-09-07T09:43:01.089Z,62707.8
2022-09-07T09:44:01.203Z,63399.9
2022-09-07T09:46:13.493Z,64784.2
2022-09-07T10:05:07.741Z,65535.0
2022-09-07T10:27:01.061Z,64682.7
2022-09-07T10:28:00.721Z,63830.3
2022-09-07T10:29:08.381Z,62358.3
2022-09-07T10:30:01.415Z,60886.2
2022-09-07T10:31:00.740Z,59414.1
2022-09-07T10:32:00.962Z,58334.1
2022-09-07T10:33:00.716Z,57254.0
2022-09-07T10:42:00.855Z,58106.3
2022-09-07T11:05:02.587Z,65535.0
2022-09-07T11:15:01.133Z,65535.0
2022-09-07T11:45:02.018Z,65535.0
2022-09-07T11:52:04.915Z,65170.6
2022-09-07T11:53:00.891Z,64887.2
2022-09-07T11:54:00.919Z,64457.6
2022-09-07T11:55:01.389Z,64106.1
2022-09-07T11:56:00.914Z,63813.2
2022-09-07T11:57:01.092Z,63275.9
2022-09-07T11:58:00.894Z,62815.4
2022-09-07T11:59:00.922Z,62475.2
2022-09-07T12:00:01.402Z,61953.7
2022-09-07T12:01:00.922Z,61432.1
2022-09-07T12:02:01.168Z,60911.7
2022-09-07T12:03:01.249Z,60391.3
2022-09-07T12:07:01.186Z,60585.7
2022-09-07T12:08:00.938Z,60780.0
2022-09-07T12:09:00.912Z,61109.6
2022-09-07T12:10:06.689Z,61439.2
2022-09-07T12:11:00.898Z,61768.8
2022-09-07T12:12:01.104Z,62349.2
2022-09-07T12:13:05.930Z,62929.6
2022-09-07T12:14:00.897Z,63451.1
2022-09-07T12:15:01.504Z,63972.7
2022-09-07T12:16:00.975Z,64494.2
2022-09-07T12:17:01.127Z,65014.6
2022-09-07T12:18:00.928Z,65535.0
2022-09-07T12:45:01.737Z,65535.0
2022-09-07T13:00:03.680Z,65535.0
2022-09-07T13:15:02.011Z,65535.0
2022-09-07T13:30:01.638Z,65535.0
2022-09-07T14:45:07.184Z,65535.0
2022-09-07T15:15:02.276Z,65535.0
2022-09-07T15:30:01.740Z,65535.0
2022-09-07T15:45:02.702Z,65535.0
2022-09-07T16:02:01.966Z,65312.4
2022-09-07T16:03:04.806Z,65089.8
2022-09-07T16:04:01.420Z,64272.5
2022-09-07T16:05:01.363Z,63455.3
2022-09-07T16:06:00.982Z,62638.0
2022-09-07T16:07:02.041Z,62005.2
2022-09-07T16:25:01.774Z,42481.0
2022-09-07T16:27:00.757Z,41702.0
2022-09-07T16:28:00.751Z,41312.5
2022-09-07T16:29:01.635Z,40930.4
2022-09-07T16:30:01.441Z,40675.7
2022-09-07T16:31:00.749Z,40493.7
2022-09-07T16:55:06.144Z,30646.0
2022-09-07T16:57:00.153Z,30535.0
2022-09-07T17:15:01.503Z,21903.0
2022-09-07T17:17:00.540Z,21330.3
2022-09-07T17:18:00.468Z,21044.0
